createdAt,value
2023-04-30T00:00:36.266Z,18.90
2023-04-30T00:03:24.694Z,19.80
2023-04-30T00:05:52.785Z,22.20
2023-04-30T00:08:20.710Z,19.90
2023-04-30T00:10:48.820Z,19.70
2023-04-30T00:13:17.126Z,21.10
2023-04-30T00:15:45.162Z,19.40
2023-04-30T00:18:13.797Z,22.80
2023-04-30T00:20:41.775Z,23.40
2023-04-30T00:23:09.679Z,22.40
2023-04-30T00:25:37.529Z,22.00
2023-04-30T00:28:05.510Z,26.10
2023-04-30T00:30:33.350Z,22.30
2023-04-30T00:33:01.333Z,25.90
2023-04-30T00:35:30.119Z,25.50
2023-04-30T00:37:58.080Z,25.70
2023-04-30T00:40:26.993Z,22.00
2023-04-30T00:42:55.959Z,24.80
2023-04-30T00:45:24.091Z,24.20
2023-04-30T00:47:52.291Z,24.20
2023-04-30T00:50:22.406Z,25.20
2023-04-30T00:52:50.900Z,25.50
2023-04-30T00:55:19.102Z,28.40
2023-04-30T00:57:47.149Z,25.70
2023-04-30T01:00:15.593Z,25.80
2023-04-30T01:02:44.149Z,27.60
2023-04-30T01:05:12.172Z,27.80
2023-04-30T01:07:45.225Z,27.00
2023-04-30T01:10:14.691Z,28.50
2023-04-30T01:13:00.925Z,26.10
2023-04-30T01:15:42.440Z,29.10
2023-04-30T01:18:28.374Z,28.20
2023-04-30T01:21:02.467Z,28.80
2023-04-30T01:23:42.546Z,34.00
2023-04-30T01:26:35.550Z,32.50
2023-04-30T01:29:05.317Z,30.80
2023-04-30T01:31:33.252Z,30.80
2023-04-30T01:34:01.230Z,29.10
2023-04-30T01:36:58.856Z,31.20
2023-04-30T01:39:35.800Z,30.30
2023-04-30T01:42:25.846Z,31.70
2023-04-30T01:45:15.779Z,31.40
2023-04-30T01:48:13.802Z,31.20
2023-04-30T01:50:52.396Z,31.00
2023-04-30T01:53:39.426Z,33.10
2023-04-30T01:56:11.629Z,30.80
2023-04-30T01:58:40.653Z,31.50
2023-04-30T02:01:29.347Z,28.50
2023-04-30T02:03:58.003Z,31.70
2023-04-30T02:06:30.425Z,29.90
2023-04-30T02:11:32.607Z,30.50
2023-04-30T02:14:00.688Z,29.20
2023-04-30T02:16:28.646Z,32.40
2023-04-30T02:18:56.648Z,31.80
2023-04-30T02:21:24.549Z,33.00
2023-04-30T02:23:52.446Z,32.80
2023-04-30T02:26:21.352Z,34.60
2023-04-30T02:28:49.345Z,33.50
2023-04-30T02:31:17.390Z,30.30
2023-04-30T02:33:46.888Z,30.50
2023-04-30T02:36:14.828Z,32.00
2023-04-30T02:38:42.782Z,30.50
2023-04-30T02:41:10.716Z,33.80
2023-04-30T02:43:38.852Z,35.20
2023-04-30T02:46:06.841Z,32.30
2023-04-30T02:48:34.799Z,37.20
2023-04-30T02:51:04.073Z,31.50
2023-04-30T02:53:31.957Z,33.30
2023-04-30T02:55:59.880Z,35.50
2023-04-30T02:58:27.845Z,36.50
2023-04-30T03:00:56.155Z,36.90
2023-04-30T03:03:24.240Z,32.40
2023-04-30T03:05:52.249Z,32.10
2023-04-30T03:08:20.103Z,32.00
2023-04-30T03:10:48.223Z,29.70
2023-04-30T03:13:16.112Z,30.30
2023-04-30T03:15:44.362Z,27.80
2023-04-30T03:18:13.474Z,29.60
2023-04-30T03:20:42.272Z,31.80
2023-04-30T03:23:10.271Z,29.70
2023-04-30T03:25:38.150Z,30.10
2023-04-30T03:28:06.412Z,31.50
2023-04-30T03:30:34.424Z,32.70
2023-04-30T03:33:02.434Z,31.60
2023-04-30T03:35:30.430Z,34.80
2023-04-30T03:37:58.360Z,26.20
2023-04-30T03:40:26.665Z,25.10
2023-04-30T03:42:56.052Z,26.80
2023-04-30T03:45:24.125Z,25.60
2023-04-30T03:47:52.767Z,22.60
2023-04-30T03:50:20.814Z,20.30
2023-04-30T03:52:48.765Z,20.00
2023-04-30T03:55:17.116Z,20.40
2023-04-30T03:57:45.279Z,21.80
2023-04-30T04:00:13.652Z,20.70
2023-04-30T04:02:43.157Z,20.80
2023-04-30T04:05:11.844Z,20.60
2023-04-30T04:07:40.134Z,20.80
2023-04-30T04:10:08.866Z,18.40
2023-04-30T04:12:37.663Z,19.20
2023-04-30T04:15:06.207Z,18.30
2023-04-30T04:17:34.193Z,21.00
2023-04-30T04:20:06.084Z,22.80
2023-04-30T04:22:35.396Z,19.50
2023-04-30T04:25:03.347Z,24.00
2023-04-30T04:27:32.833Z,20.00
2023-04-30T04:30:02.019Z,22.60
2023-04-30T04:32:30.730Z,21.10
2023-04-30T04:34:59.309Z,20.30
2023-04-30T04:37:27.382Z,19.90
2023-04-30T04:39:55.540Z,18.20
2023-04-30T04:42:23.882Z,17.70
2023-04-30T04:44:51.997Z,17.80
2023-04-30T04:47:21.943Z,19.00
2023-04-30T04:49:49.913Z,15.80
2023-04-30T04:52:17.745Z,17.60
2023-04-30T04:54:45.654Z,16.00
2023-04-30T04:57:13.638Z,13.80
2023-04-30T04:59:41.546Z,14.00
2023-04-30T05:02:09.663Z,14.70
2023-04-30T05:04:38.192Z,12.60
2023-04-30T05:07:06.240Z,16.50
2023-04-30T05:09:34.165Z,17.70
2023-04-30T05:12:02.391Z,13.50
2023-04-30T05:14:30.342Z,15.60
2023-04-30T05:16:58.216Z,14.30
2023-04-30T05:19:26.343Z,15.70
2023-04-30T05:21:54.290Z,14.30
2023-04-30T05:24:22.267Z,11.10
2023-04-30T05:26:50.192Z,12.00
2023-04-30T05:29:18.063Z,11.10
2023-04-30T05:31:45.985Z,13.60
2023-04-30T05:34:14.046Z,10.60
2023-04-30T05:36:43.196Z,12.60
2023-04-30T05:39:12.414Z,13.90
2023-04-30T05:41:40.433Z,9.30
2023-04-30T05:44:08.366Z,12.10
2023-04-30T05:46:36.467Z,11.60
2023-04-30T05:49:04.373Z,10.70
2023-04-30T05:51:32.650Z,8.60
2023-04-30T05:54:02.457Z,11.30
2023-04-30T05:56:31.017Z,9.40
2023-04-30T05:58:58.919Z,11.80
2023-04-30T06:01:28.852Z,9.20
2023-04-30T06:03:56.937Z,10.90
2023-04-30T06:06:24.921Z,10.20
2023-04-30T06:08:52.796Z,10.30
2023-04-30T06:11:21.110Z,10.90
2023-04-30T06:13:49.544Z,9.90
2023-04-30T06:16:17.634Z,7.80
2023-04-30T06:18:45.842Z,11.40
2023-04-30T06:21:13.719Z,10.80
2023-04-30T06:23:41.681Z,10.20
2023-04-30T06:26:09.661Z,10.50
2023-04-30T06:28:37.525Z,8.70
2023-04-30T06:31:05.652Z,11.40
2023-04-30T06:33:33.603Z,10.60
2023-04-30T06:36:01.515Z,7.10
2023-04-30T06:38:29.530Z,9.20
2023-04-30T06:40:57.596Z,9.90
2023-04-30T06:43:25.569Z,11.50
2023-04-30T06:45:53.574Z,7.80
2023-04-30T06:48:21.715Z,9.30
2023-04-30T06:50:49.635Z,10.50
2023-04-30T06:53:17.597Z,11.30
2023-04-30T06:55:48.716Z,7.70
2023-04-30T06:58:16.731Z,14.80
2023-04-30T07:00:44.617Z,7.70
2023-04-30T07:03:12.810Z,8.40
2023-04-30T07:05:41.642Z,11.40
2023-04-30T07:08:09.500Z,8.00
2023-04-30T07:10:37.470Z,9.30
2023-04-30T07:13:05.472Z,8.40
2023-04-30T07:15:33.557Z,9.30
2023-04-30T07:18:01.529Z,8.60
2023-04-30T07:20:30.196Z,9.30
2023-04-30T07:22:58.518Z,6.50
2023-04-30T07:25:26.424Z,8.40
2023-04-30T07:27:55.440Z,8.10
2023-04-30T07:30:25.129Z,9.60
2023-04-30T07:32:53.442Z,10.70
2023-04-30T07:35:21.467Z,7.20
2023-04-30T07:37:49.391Z,13.40
2023-04-30T07:40:28.616Z,10.50
2023-04-30T07:43:04.682Z,7.10
2023-04-30T07:45:33.966Z,11.00
2023-04-30T07:48:01.934Z,8.20
2023-04-30T07:50:33.930Z,7.10
2023-04-30T07:53:02.341Z,8.00
2023-04-30T07:55:30.491Z,8.60
2023-04-30T07:57:58.917Z,8.50
2023-04-30T08:00:26.944Z,8.00
2023-04-30T08:02:54.976Z,9.20
2023-04-30T08:05:23.034Z,9.30
2023-04-30T08:07:51.326Z,7.60
2023-04-30T08:10:19.348Z,7.00
2023-04-30T08:12:47.431Z,10.00
2023-04-30T08:15:15.625Z,12.30
2023-04-30T08:17:43.718Z,9.00
2023-04-30T08:20:11.905Z,8.40
2023-04-30T08:22:39.759Z,9.80
2023-04-30T08:25:10.644Z,8.10
2023-04-30T08:27:39.330Z,7.90
2023-04-30T08:30:07.883Z,5.20
2023-04-30T08:32:36.585Z,9.00
2023-04-30T08:35:05.895Z,6.00
2023-04-30T08:37:34.431Z,9.30
2023-04-30T08:40:02.361Z,9.40
2023-04-30T08:42:34.230Z,8.50
2023-04-30T08:45:03.871Z,6.80
2023-04-30T08:47:32.123Z,6.70
2023-04-30T08:50:00.378Z,6.80
2023-04-30T08:52:30.194Z,6.70
2023-04-30T08:55:01.385Z,7.30
2023-04-30T08:57:29.288Z,5.80
2023-04-30T08:59:57.416Z,4.90
2023-04-30T09:02:25.616Z,5.70
2023-04-30T09:04:53.688Z,6.30
2023-04-30T09:07:25.388Z,6.20
2023-04-30T09:09:54.056Z,5.10
2023-04-30T09:12:22.888Z,4.70
2023-04-30T09:15:06.193Z,4.50
2023-04-30T09:17:35.039Z,4.90
2023-04-30T09:20:13.546Z,10.00
2023-04-30T09:22:42.414Z,6.60
2023-04-30T09:25:11.437Z,6.10
2023-04-30T09:27:39.273Z,6.40
2023-04-30T09:30:08.063Z,4.30
2023-04-30T09:32:36.215Z,5.40
2023-04-30T09:35:04.915Z,6.20
2023-04-30T09:37:37.573Z,4.80
2023-04-30T09:40:06.122Z,7.10
2023-04-30T09:42:34.150Z,6.70
2023-04-30T09:45:04.783Z,6.40
2023-04-30T09:47:33.116Z,5.50
2023-04-30T09:50:01.052Z,4.80
2023-04-30T09:52:29.006Z,7.90
2023-04-30T09:54:56.990Z,5.00
2023-04-30T09:57:26.969Z,4.60
2023-04-30T09:59:56.066Z,4.20
2023-04-30T10:02:24.889Z,5.00
2023-04-30T10:04:58.262Z,4.80
2023-04-30T10:07:34.286Z,3.90
2023-04-30T10:10:10.034Z,4.70
2023-04-30T10:12:43.264Z,4.50
2023-04-30T10:15:31.266Z,4.40
2023-04-30T10:18:05.456Z,4.10
2023-04-30T10:20:39.269Z,6.20
2023-04-30T10:23:08.576Z,5.80
2023-04-30T10:25:38.921Z,4.90
2023-04-30T10:28:08.688Z,5.60
2023-04-30T10:30:36.656Z,4.00
2023-04-30T10:33:29.198Z,5.30
2023-04-30T10:36:00.369Z,5.80
2023-04-30T10:38:30.613Z,5.20
2023-04-30T10:41:02.384Z,5.80
2023-04-30T10:43:31.553Z,7.20
2023-04-30T10:46:00.266Z,5.90
2023-04-30T10:48:31.164Z,5.50
2023-04-30T10:50:59.823Z,4.10
2023-04-30T10:53:32.031Z,6.80
2023-04-30T10:56:06.871Z,3.40
2023-04-30T10:58:37.178Z,4.50
2023-04-30T11:01:15.866Z,4.30
2023-04-30T11:04:08.591Z,3.90
2023-04-30T11:06:54.796Z,4.00
2023-04-30T11:09:37.538Z,4.20
2023-04-30T11:12:30.550Z,8.30
2023-04-30T11:15:06.862Z,4.30
2023-04-30T11:17:35.069Z,3.80
2023-04-30T11:20:03.541Z,3.40
2023-04-30T11:22:36.127Z,6.40
2023-04-30T11:25:05.889Z,4.80
2023-04-30T11:27:34.993Z,5.40
2023-04-30T11:30:10.177Z,4.20
2023-04-30T11:32:39.777Z,3.10
2023-04-30T11:35:08.132Z,3.80
2023-04-30T11:37:38.712Z,3.80
2023-04-30T11:40:09.899Z,3.90
2023-04-30T11:42:46.158Z,3.70
2023-04-30T11:45:23.527Z,3.50
2023-04-30T11:47:54.069Z,2.80
2023-04-30T11:50:31.255Z,4.20
2023-04-30T11:53:03.346Z,3.00
2023-04-30T11:55:31.284Z,5.30
2023-04-30T11:58:00.067Z,5.70
2023-04-30T12:00:29.788Z,2.40
2023-04-30T12:03:01.169Z,2.80
2023-04-30T12:05:29.391Z,6.20
2023-04-30T12:08:10.808Z,3.50
2023-04-30T12:10:39.069Z,2.20
2023-04-30T12:13:07.091Z,5.60
2023-04-30T12:15:35.190Z,3.70
2023-04-30T12:18:13.533Z,4.90
2023-04-30T12:20:42.379Z,3.40
2023-04-30T12:23:10.498Z,3.10
2023-04-30T12:25:45.111Z,2.80
2023-04-30T12:28:13.086Z,6.40
2023-04-30T12:30:43.677Z,4.20
2023-04-30T12:33:12.102Z,3.70
2023-04-30T12:35:43.035Z,4.90
2023-04-30T12:38:11.510Z,3.50
2023-04-30T12:40:40.874Z,3.20
2023-04-30T12:43:09.546Z,4.10
2023-04-30T12:45:51.517Z,3.60
2023-04-30T12:48:27.926Z,8.50
2023-04-30T12:51:01.263Z,3.50
2023-04-30T12:53:29.898Z,5.20
2023-04-30T12:56:12.477Z,3.80
2023-04-30T12:58:40.675Z,4.70
2023-04-30T13:01:13.280Z,4.50
2023-04-30T13:03:41.956Z,3.60
2023-04-30T13:06:10.578Z,4.30
2023-04-30T13:08:49.753Z,2.40
2023-04-30T13:11:27.015Z,3.20
2023-04-30T13:13:55.940Z,4.90
2023-04-30T13:16:27.431Z,7.10
2023-04-30T13:18:55.496Z,4.70
2023-04-30T13:21:25.049Z,3.70
2023-04-30T13:23:54.542Z,8.00
2023-04-30T13:26:23.787Z,6.30
2023-04-30T13:28:52.290Z,3.40
2023-04-30T13:31:20.608Z,4.50
2023-04-30T13:33:49.270Z,5.40
2023-04-30T13:36:17.239Z,3.80
2023-04-30T13:38:45.181Z,4.10
2023-04-30T13:41:13.485Z,3.10
2023-04-30T13:43:46.339Z,2.50
2023-04-30T13:46:15.163Z,3.20
2023-04-30T13:48:43.219Z,3.60
2023-04-30T13:51:11.212Z,3.00
2023-04-30T13:53:40.516Z,3.20
2023-04-30T13:56:08.515Z,2.60
2023-04-30T13:58:36.407Z,2.80
2023-04-30T14:01:04.381Z,3.40
2023-04-30T14:03:33.034Z,6.10
2023-04-30T14:06:01.374Z,3.90
2023-04-30T14:08:30.797Z,4.70
2023-04-30T14:10:58.742Z,6.00
2023-04-30T14:13:26.694Z,3.70
2023-04-30T14:15:56.153Z,1.90
2023-04-30T14:18:24.249Z,3.90
2023-04-30T14:20:52.324Z,4.20
2023-04-30T14:23:20.181Z,7.30
2023-04-30T14:25:48.328Z,4.20
2023-04-30T14:28:16.440Z,3.30
2023-04-30T14:30:44.427Z,5.70
2023-04-30T14:33:13.032Z,5.40
2023-04-30T14:35:41.652Z,4.60
2023-04-30T14:38:09.682Z,3.50
2023-04-30T14:40:37.620Z,4.60
2023-04-30T14:43:05.991Z,4.70
2023-04-30T14:45:34.162Z,4.50
2023-04-30T14:48:03.965Z,3.30
2023-04-30T14:50:33.363Z,14.40
2023-04-30T14:53:01.376Z,5.60
2023-04-30T14:55:29.640Z,4.50
2023-04-30T14:57:58.935Z,5.30
2023-04-30T15:00:27.992Z,3.40
2023-04-30T15:02:56.050Z,4.30
2023-04-30T15:05:24.278Z,4.50
2023-04-30T15:07:52.624Z,4.90
2023-04-30T15:10:20.693Z,3.20
2023-04-30T15:12:48.742Z,2.30
2023-04-30T15:15:18.948Z,4.80
2023-04-30T15:17:47.166Z,5.10
2023-04-30T15:20:15.139Z,5.10
2023-04-30T15:22:43.011Z,24.40
2023-04-30T15:25:10.938Z,9.00
2023-04-30T15:27:39.827Z,4.10
2023-04-30T15:30:08.316Z,3.00
2023-04-30T15:32:36.366Z,3.50
2023-04-30T15:35:04.710Z,4.60
2023-04-30T15:37:34.566Z,4.30
2023-04-30T15:40:04.779Z,2.80
2023-04-30T15:42:33.398Z,4.80
2023-04-30T15:45:01.371Z,3.60
2023-04-30T15:47:29.462Z,2.50
2023-04-30T15:49:57.486Z,2.30
2023-04-30T15:52:25.480Z,4.30
2023-04-30T15:54:53.474Z,3.50
2023-04-30T15:57:21.748Z,3.70
2023-04-30T15:59:49.729Z,4.10
2023-04-30T16:02:17.658Z,3.70
2023-04-30T16:04:45.797Z,5.80
2023-04-30T16:07:13.688Z,3.50
2023-04-30T16:09:45.697Z,3.50
2023-04-30T16:12:13.696Z,4.70
2023-04-30T16:14:42.032Z,3.00
2023-04-30T16:17:10.040Z,2.40
2023-04-30T16:19:37.952Z,3.20
2023-04-30T16:22:06.134Z,3.60
2023-04-30T16:24:34.056Z,2.90
2023-04-30T16:27:02.020Z,4.40
2023-04-30T16:29:30.089Z,2.70
2023-04-30T16:31:58.153Z,6.20
2023-04-30T16:34:26.282Z,5.00
2023-04-30T16:36:54.169Z,3.20
2023-04-30T16:39:22.371Z,2.80
2023-04-30T16:41:50.329Z,5.30
2023-04-30T16:44:18.319Z,4.30
2023-04-30T16:46:46.210Z,4.20
2023-04-30T16:49:14.059Z,3.90
2023-04-30T16:51:41.933Z,6.50
2023-04-30T16:54:09.872Z,2.30
2023-04-30T16:56:37.815Z,2.80
2023-04-30T16:59:05.850Z,2.40
2023-04-30T17:01:34.288Z,3.70
2023-04-30T17:04:02.302Z,3.50
2023-04-30T17:06:30.298Z,3.40
2023-04-30T17:08:59.321Z,2.50
2023-04-30T17:11:27.890Z,3.80
2023-04-30T17:13:55.842Z,3.90
2023-04-30T17:16:23.897Z,2.80
2023-04-30T17:18:51.846Z,4.00
2023-04-30T17:21:19.794Z,3.20
2023-04-30T17:23:47.770Z,5.80
2023-04-30T17:26:15.669Z,6.20
2023-04-30T17:28:43.611Z,3.50
2023-04-30T17:31:11.560Z,3.90
2023-04-30T17:36:08.779Z,4.60
2023-04-30T17:38:37.257Z,3.30
2023-04-30T17:41:05.244Z,5.50
2023-04-30T17:43:33.203Z,10.40
2023-04-30T17:46:01.854Z,5.20
2023-04-30T17:48:31.119Z,4.00
2023-04-30T17:50:59.106Z,10.10
2023-04-30T17:53:27.042Z,10.10
2023-04-30T17:55:55.066Z,9.90
2023-04-30T17:58:23.018Z,6.10
2023-04-30T18:00:51.006Z,6.80
2023-04-30T18:03:19.276Z,6.50
2023-04-30T18:05:47.304Z,6.90
2023-04-30T18:08:15.216Z,6.40
2023-04-30T18:10:43.306Z,6.70
2023-04-30T18:13:11.622Z,8.30
2023-04-30T18:15:40.079Z,12.20
2023-04-30T18:18:08.220Z,12.60
2023-04-30T18:20:36.395Z,8.40
2023-04-30T18:23:07.815Z,9.80
2023-04-30T18:25:37.826Z,10.70
2023-04-30T18:28:07.939Z,10.60
2023-04-30T18:30:36.924Z,18.30
2023-04-30T18:33:05.121Z,18.10
2023-04-30T18:35:34.136Z,16.30
2023-04-30T18:38:02.111Z,23.70
2023-04-30T18:40:30.145Z,26.80
2023-04-30T18:42:58.996Z,16.30
2023-04-30T18:45:26.952Z,11.70
2023-04-30T18:47:55.705Z,11.70
2023-04-30T18:50:24.765Z,13.90
2023-04-30T18:52:53.220Z,11.90
2023-04-30T18:55:21.122Z,11.40
2023-04-30T18:57:50.665Z,11.70
2023-04-30T19:00:18.672Z,10.60
2023-04-30T19:02:46.731Z,16.20
2023-04-30T19:05:14.660Z,12.10
2023-04-30T19:07:42.528Z,15.20
2023-04-30T19:10:10.585Z,12.20
2023-04-30T19:12:38.735Z,13.70
2023-04-30T19:15:08.374Z,10.30
2023-04-30T19:17:36.559Z,11.70
2023-04-30T19:20:05.493Z,10.00
2023-04-30T19:22:33.399Z,9.00
2023-04-30T19:25:01.984Z,10.50
2023-04-30T19:27:29.908Z,10.70
2023-04-30T19:29:58.051Z,9.10
2023-04-30T19:32:26.440Z,10.00
2023-04-30T19:34:54.587Z,13.00
2023-04-30T19:37:22.982Z,10.70
2023-04-30T19:39:50.959Z,11.40
2023-04-30T19:42:18.899Z,13.40
2023-04-30T19:44:46.836Z,9.00
2023-04-30T19:47:14.773Z,10.30
2023-04-30T19:49:42.951Z,11.30
2023-04-30T19:52:10.854Z,9.50
2023-04-30T19:54:38.820Z,12.90
2023-04-30T19:57:07.715Z,12.10
2023-04-30T19:59:35.632Z,8.50
2023-04-30T20:02:03.615Z,6.60
2023-04-30T20:04:31.603Z,9.40
2023-04-30T20:07:01.104Z,5.70
2023-04-30T20:09:29.073Z,7.60
2023-04-30T20:11:57.067Z,10.90
2023-04-30T20:14:25.007Z,8.60
2023-04-30T20:16:54.865Z,6.90
2023-04-30T20:19:22.942Z,7.70
2023-04-30T20:21:51.059Z,12.90
2023-04-30T20:24:19.191Z,13.30
2023-04-30T20:26:47.768Z,11.70
2023-04-30T20:29:15.922Z,9.40
2023-04-30T20:31:43.852Z,7.90
2023-04-30T20:34:11.890Z,9.90
2023-04-30T20:36:39.934Z,7.40
2023-04-30T20:39:08.738Z,7.30
2023-04-30T20:41:36.657Z,9.10
2023-04-30T20:44:05.820Z,10.90
2023-04-30T20:46:33.825Z,18.10
2023-04-30T20:49:04.513Z,26.40
2023-04-30T20:51:32.551Z,28.40
2023-04-30T20:54:00.525Z,33.10
2023-04-30T20:56:28.539Z,38.50
2023-04-30T20:58:56.514Z,38.90
2023-04-30T21:01:24.648Z,39.80
2023-04-30T21:03:52.753Z,43.80
2023-04-30T21:06:21.059Z,42.00
2023-04-30T21:08:49.444Z,39.70
2023-04-30T21:11:18.989Z,35.20
2023-04-30T21:16:14.999Z,32.80
2023-04-30T21:18:44.482Z,34.90
2023-04-30T21:21:12.396Z,29.60
2023-04-30T21:23:41.392Z,30.00
2023-04-30T21:26:09.332Z,32.70
2023-04-30T21:28:37.453Z,26.80
2023-04-30T21:31:07.321Z,25.10
2023-04-30T21:33:36.949Z,23.40
2023-04-30T21:36:05.277Z,26.50
2023-04-30T21:38:34.283Z,28.30
2023-04-30T21:41:02.218Z,30.50
2023-04-30T21:43:30.180Z,30.50
2023-04-30T21:46:02.724Z,27.20
2023-04-30T21:48:30.865Z,33.90
2023-04-30T21:50:58.754Z,37.60
2023-04-30T21:53:27.021Z,30.50
2023-04-30T21:55:54.944Z,36.80
2023-04-30T21:58:22.788Z,32.80
2023-04-30T22:00:50.800Z,34.60
2023-04-30T22:03:18.885Z,33.30
2023-04-30T22:05:47.479Z,32.10
2023-04-30T22:08:15.510Z,35.60
2023-04-30T22:10:43.448Z,30.30
2023-04-30T22:13:11.444Z,34.30
2023-04-30T22:15:47.593Z,32.90
2023-04-30T22:18:16.261Z,32.80
2023-04-30T22:20:44.545Z,35.90
2023-04-30T22:23:12.682Z,30.70
2023-04-30T22:25:40.567Z,29.70
2023-04-30T22:28:10.178Z,28.30
2023-04-30T22:30:39.487Z,28.80
2023-04-30T22:33:07.750Z,28.90
2023-04-30T22:35:38.090Z,28.10
2023-04-30T22:38:06.771Z,24.80
2023-04-30T22:40:39.416Z,28.10
2023-04-30T22:43:09.537Z,26.20
2023-04-30T22:45:40.365Z,25.60
2023-04-30T22:48:09.828Z,28.40
2023-04-30T22:50:38.171Z,26.50
2023-04-30T22:53:06.595Z,29.80
2023-04-30T22:55:35.050Z,28.30
2023-04-30T22:58:02.925Z,27.70
2023-04-30T23:00:30.842Z,29.10
2023-04-30T23:02:58.749Z,27.10
2023-04-30T23:05:26.777Z,27.90
2023-04-30T23:07:54.666Z,28.80
2023-04-30T23:10:22.578Z,31.40
2023-04-30T23:12:50.440Z,31.30
2023-04-30T23:15:18.386Z,28.40
2023-04-30T23:17:46.373Z,32.60
2023-04-30T23:20:14.505Z,30.70
2023-04-30T23:22:42.508Z,29.70
2023-04-30T23:25:10.349Z,30.60
2023-04-30T23:27:38.250Z,30.60
2023-04-30T23:30:07.002Z,29.90
2023-04-30T23:32:34.924Z,34.50
2023-04-30T23:35:03.460Z,36.80
2023-04-30T23:37:31.468Z,36.10
2023-04-30T23:40:00.873Z,33.50
2023-04-30T23:42:28.730Z,30.50
2023-04-30T23:44:56.589Z,30.80
2023-04-30T23:47:24.492Z,26.30
2023-04-30T23:49:52.628Z,29.60
2023-04-30T23:52:20.513Z,24.20
2023-04-30T23:54:49.197Z,25.90
2023-04-30T23:57:17.180Z,27.30
2023-04-30T23:59:45.307Z,26.70
